createdAt,value
2018-05-16T00:00:10.367Z,0.00
2018-05-16T00:01:10.380Z,0.00
2018-05-16T00:02:10.403Z,0.00
2018-05-16T00:03:10.415Z,0.00
2018-05-16T00:04:10.435Z,0.00
2018-05-16T00:05:10.479Z,0.00
2018-05-16T00:06:10.481Z,0.00
2018-05-16T00:07:10.510Z,0.00
2018-05-16T00:08:10.515Z,0.00
2018-05-16T00:09:10.543Z,0.00
2018-05-16T00:10:10.575Z,0.00
2018-05-16T00:11:10.590Z,0.00
2018-05-16T00:12:10.623Z,0.00
2018-05-16T00:13:10.616Z,0.00
2018-05-16T00:14:10.631Z,0.00
2018-05-16T00:15:10.654Z,0.00
2018-05-16T00:16:10.709Z,0.00
2018-05-16T00:17:10.717Z,0.00
2018-05-16T00:18:10.729Z,0.00
2018-05-16T00:19:10.752Z,0.00
2018-05-16T00:20:10.766Z,0.00
2018-05-16T00:21:10.786Z,0.00
2018-05-16T00:22:10.785Z,0.00
2018-05-16T00:23:10.804Z,0.00
2018-05-16T00:24:10.826Z,0.00
2018-05-16T00:25:10.867Z,0.00
2018-05-16T00:26:10.886Z,0.00
2018-05-16T00:27:10.891Z,0.00
2018-05-16T00:28:10.922Z,0.00
2018-05-16T00:29:10.922Z,0.00
2018-05-16T00:30:10.953Z,0.00
2018-05-16T00:31:10.964Z,0.00
2018-05-16T00:32:10.991Z,0.00
2018-05-16T00:33:11.003Z,0.00
2018-05-16T00:34:11.041Z,0.00
2018-05-16T00:35:11.053Z,0.00
2018-05-16T00:36:11.068Z,0.00
2018-05-16T00:37:11.083Z,0.00
2018-05-16T00:38:11.116Z,0.00
2018-05-16T00:39:11.156Z,0.00
2018-05-16T00:40:11.143Z,0.00
2018-05-16T00:41:11.158Z,0.00
2018-05-16T00:42:11.184Z,0.00
2018-05-16T00:43:11.202Z,0.00
2018-05-16T00:44:11.221Z,0.00
2018-05-16T00:45:11.250Z,0.00
2018-05-16T00:46:11.268Z,0.00
2018-05-16T00:47:11.295Z,0.00
2018-05-16T00:48:11.299Z,0.00
2018-05-16T00:49:11.327Z,0.00
2018-05-16T00:50:11.349Z,0.00
2018-05-16T00:51:11.367Z,0.00
2018-05-16T00:52:11.390Z,0.00
2018-05-16T00:53:11.402Z,0.00
2018-05-16T00:54:11.427Z,0.00
2018-05-16T00:55:11.446Z,0.00
2018-05-16T00:56:11.457Z,0.00
2018-05-16T00:57:11.479Z,0.00
2018-05-16T00:58:11.524Z,0.00
2018-05-16T00:59:11.515Z,0.00
2018-05-16T01:00:11.542Z,0.00
2018-05-16T01:01:11.572Z,0.00
2018-05-16T01:02:11.583Z,0.00
2018-05-16T01:03:11.604Z,0.00
2018-05-16T01:04:11.610Z,0.00
2018-05-16T01:05:11.633Z,0.00
2018-05-16T01:06:11.656Z,0.00
2018-05-16T01:07:11.688Z,0.00
2018-05-16T01:08:11.696Z,0.00
2018-05-16T01:09:11.730Z,0.00
2018-05-16T01:10:11.746Z,0.00
2018-05-16T01:11:11.745Z,0.00
2018-05-16T01:12:11.766Z,0.00
2018-05-16T01:13:11.797Z,0.00
2018-05-16T01:14:11.809Z,0.00
2018-05-16T01:15:11.846Z,0.00
2018-05-16T01:16:11.841Z,0.00
2018-05-16T01:17:11.868Z,0.00
2018-05-16T01:18:11.893Z,0.00
2018-05-16T01:19:11.909Z,0.00
2018-05-16T01:20:11.946Z,0.00
2018-05-16T01:21:11.946Z,0.00
2018-05-16T01:22:11.976Z,0.00
2018-05-16T01:23:11.980Z,0.00
2018-05-16T01:24:11.996Z,0.00
2018-05-16T01:25:12.019Z,0.00
2018-05-16T01:26:12.046Z,0.00
2018-05-16T01:27:12.068Z,0.00
2018-05-16T01:28:12.084Z,0.00
2018-05-16T01:29:12.093Z,0.00
2018-05-16T01:30:12.126Z,0.00
2018-05-16T01:31:12.131Z,0.00
2018-05-16T01:32:12.165Z,0.00
2018-05-16T01:33:12.186Z,0.00
2018-05-16T01:34:12.197Z,0.00
2018-05-16T01:35:12.233Z,0.00
2018-05-16T01:36:12.229Z,0.00
2018-05-16T01:37:12.248Z,0.00
2018-05-16T01:38:12.263Z,0.00
2018-05-16T01:39:12.290Z,0.00
2018-05-16T01:40:12.336Z,0.00
2018-05-16T01:41:12.332Z,0.00
2018-05-16T01:42:12.339Z,0.00
2018-05-16T01:43:12.370Z,0.00
2018-05-16T01:44:12.388Z,0.00
2018-05-16T01:45:12.415Z,0.00
2018-05-16T01:46:12.424Z,0.00
2018-05-16T01:47:12.448Z,0.00
2018-05-16T01:48:12.466Z,0.00
2018-05-16T01:49:12.481Z,0.00
2018-05-16T01:50:12.502Z,0.00
2018-05-16T01:51:12.515Z,0.00
2018-05-16T01:52:12.537Z,0.00
2018-05-16T01:53:12.575Z,0.00
2018-05-16T01:54:12.579Z,0.00
2018-05-16T01:55:12.593Z,0.00
2018-05-16T01:56:12.631Z,0.00
2018-05-16T01:57:12.633Z,0.00
2018-05-16T01:58:12.652Z,0.00
2018-05-16T01:59:12.684Z,0.00
2018-05-16T02:00:12.690Z,0.00
2018-05-16T02:01:12.724Z,0.00
2018-05-16T02:02:12.733Z,0.00
2018-05-16T02:03:12.743Z,0.00
2018-05-16T02:04:12.763Z,0.00
2018-05-16T02:05:12.801Z,0.00
2018-05-16T02:06:12.800Z,0.00
2018-05-16T02:07:12.819Z,0.00
2018-05-16T02:08:12.840Z,0.00
2018-05-16T02:09:12.861Z,0.00
2018-05-16T02:10:12.881Z,0.00
2018-05-16T02:11:12.902Z,0.00
2018-05-16T02:12:12.937Z,0.00
2018-05-16T02:13:12.934Z,0.00
2018-05-16T02:14:12.952Z,0.00
2018-05-16T02:15:12.991Z,0.00
2018-05-16T02:16:13.013Z,0.00
2018-05-16T02:17:13.026Z,0.00
2018-05-16T02:18:13.026Z,0.00
2018-05-16T02:19:13.043Z,0.00
2018-05-16T02:20:13.065Z,0.00
2018-05-16T02:21:13.087Z,0.00
2018-05-16T02:22:13.110Z,0.00
2018-05-16T02:23:13.118Z,0.00
2018-05-16T02:24:13.143Z,0.00
2018-05-16T02:25:13.176Z,0.00
2018-05-16T02:26:13.178Z,0.00
2018-05-16T02:27:13.202Z,0.00
2018-05-16T02:28:13.237Z,0.00
2018-05-16T02:29:13.234Z,0.00
2018-05-16T02:30:13.253Z,0.00
2018-05-16T02:31:13.280Z,0.00
2018-05-16T02:32:13.323Z,0.00
2018-05-16T02:33:13.304Z,0.00
2018-05-16T02:34:13.326Z,0.00
2018-05-16T02:35:13.348Z,0.00
2018-05-16T02:36:13.372Z,4.00
2018-05-16T02:37:13.420Z,4.00
2018-05-16T02:38:13.405Z,4.00
2018-05-16T02:39:13.445Z,4.00
2018-05-16T02:40:13.458Z,4.00
2018-05-16T02:41:13.463Z,4.00
2018-05-16T02:42:13.519Z,0.00
2018-05-16T02:43:13.497Z,0.00
2018-05-16T02:44:13.524Z,4.00
2018-05-16T02:45:13.551Z,4.00
2018-05-16T02:46:13.556Z,4.00
2018-05-16T02:47:13.575Z,4.00
2018-05-16T02:48:13.596Z,4.00
2018-05-16T02:49:13.609Z,4.00
2018-05-16T02:50:13.631Z,4.00
2018-05-16T02:51:13.643Z,4.00
2018-05-16T02:52:13.675Z,8.00
2018-05-16T02:53:13.691Z,8.00
2018-05-16T02:54:13.699Z,8.00
2018-05-16T02:55:13.723Z,8.00
2018-05-16T02:56:13.752Z,12.00
2018-05-16T02:57:13.766Z,12.00
2018-05-16T02:58:13.781Z,16.00
2018-05-16T02:59:13.831Z,16.00
2018-05-16T03:00:13.832Z,20.00
2018-05-16T03:01:13.849Z,20.00
2018-05-16T03:02:13.864Z,24.00
2018-05-16T03:03:13.881Z,28.00
2018-05-16T03:04:13.893Z,28.00
2018-05-16T03:05:13.905Z,36.00
2018-05-16T03:06:13.931Z,40.00
2018-05-16T03:07:13.956Z,44.00
2018-05-16T03:08:13.968Z,48.00
2018-05-16T03:09:13.995Z,56.00
2018-05-16T03:10:14.008Z,64.00
2018-05-16T03:11:14.021Z,68.00
2018-05-16T03:12:14.064Z,72.00
2018-05-16T03:13:14.061Z,76.00
2018-05-16T03:14:14.081Z,76.00
2018-05-16T03:15:14.097Z,76.00
2018-05-16T03:16:14.113Z,80.00
2018-05-16T03:17:14.138Z,92.00
2018-05-16T03:18:14.153Z,100.00
2018-05-16T03:19:14.174Z,116.00
2018-05-16T03:20:14.195Z,132.00
2018-05-16T03:21:14.211Z,148.00
2018-05-16T03:22:14.235Z,164.00
2018-05-16T03:23:14.243Z,192.00
2018-05-16T03:24:14.273Z,216.00
2018-05-16T03:25:14.288Z,244.00
2018-05-16T03:26:14.324Z,268.00
2018-05-16T03:27:14.327Z,300.00
2018-05-16T03:28:14.361Z,348.00
2018-05-16T03:29:14.365Z,392.00
2018-05-16T03:30:14.390Z,440.00
2018-05-16T03:31:14.405Z,488.00
2018-05-16T03:32:14.437Z,524.00
2018-05-16T03:33:14.448Z,544.00
2018-05-16T03:34:14.464Z,576.00
2018-05-16T03:35:14.471Z,620.00
2018-05-16T03:36:14.523Z,636.00
2018-05-16T03:37:14.605Z,652.00
2018-05-16T03:38:14.528Z,676.00
2018-05-16T03:39:14.568Z,676.00
2018-05-16T03:40:14.647Z,704.00
2018-05-16T03:41:14.599Z,764.00
2018-05-16T03:42:14.608Z,812.00
2018-05-16T03:43:14.623Z,816.00
2018-05-16T03:44:14.644Z,864.00
2018-05-16T03:45:14.665Z,944.00
2018-05-16T03:46:14.682Z,1044.00
2018-05-16T03:47:14.694Z,1120.00
2018-05-16T03:48:14.741Z,1196.00
2018-05-16T03:49:14.737Z,1136.00
2018-05-16T03:50:14.752Z,1048.00
2018-05-16T03:51:14.764Z,1188.00
2018-05-16T03:52:14.785Z,1376.00
2018-05-16T03:53:14.822Z,1408.00
2018-05-16T03:54:14.854Z,1408.00
2018-05-16T03:55:14.847Z,1524.00
2018-05-16T03:56:14.904Z,1632.00
2018-05-16T03:57:14.902Z,1636.00
2018-05-16T03:58:14.897Z,1572.00
2018-05-16T03:59:14.921Z,1556.00
2018-05-16T04:00:14.952Z,1632.00
2018-05-16T04:01:14.973Z,1668.00
2018-05-16T04:02:15.047Z,1700.00
2018-05-16T04:03:15.017Z,1812.00
2018-05-16T04:04:15.028Z,1820.00
2018-05-16T04:05:15.046Z,1616.00
2018-05-16T04:06:15.062Z,1640.00
2018-05-16T04:07:15.070Z,1920.00
2018-05-16T04:08:15.087Z,1948.00
2018-05-16T04:09:15.130Z,1652.00
2018-05-16T04:10:15.119Z,1584.00
2018-05-16T04:11:15.141Z,1792.00
2018-05-16T04:12:15.178Z,1960.00
2018-05-16T04:13:15.192Z,2052.00
2018-05-16T04:14:15.199Z,2004.00
2018-05-16T04:15:15.223Z,1964.00
2018-05-16T04:16:15.238Z,2016.00
2018-05-16T04:17:15.269Z,2020.00
2018-05-16T04:18:15.281Z,2076.00
2018-05-16T04:19:15.297Z,2256.00
2018-05-16T04:20:15.332Z,2304.00
2018-05-16T04:21:15.326Z,2400.00
2018-05-16T04:22:15.355Z,2812.00
2018-05-16T04:23:15.365Z,3272.00
2018-05-16T04:24:15.389Z,3540.00
2018-05-16T04:25:15.422Z,3764.00
2018-05-16T04:26:15.422Z,3848.00
2018-05-16T04:27:15.456Z,3948.00
2018-05-16T04:28:15.471Z,4108.00
2018-05-16T04:29:15.477Z,4220.00
2018-05-16T04:30:15.492Z,4260.00
2018-05-16T04:31:15.523Z,4424.00
2018-05-16T04:32:15.550Z,4832.00
2018-05-16T04:33:15.551Z,5064.00
2018-05-16T04:34:15.580Z,4976.00
2018-05-16T04:35:15.595Z,4984.00
2018-05-16T04:36:15.627Z,4764.00
2018-05-16T04:37:15.638Z,4388.00
2018-05-16T04:38:15.652Z,4248.00
2018-05-16T04:39:15.666Z,4276.00
2018-05-16T04:40:15.716Z,4336.00
2018-05-16T04:41:15.727Z,4392.00
2018-05-16T04:42:15.792Z,4544.00
2018-05-16T04:43:15.755Z,4808.00
2018-05-16T04:44:15.770Z,5100.00
2018-05-16T04:45:15.815Z,5272.00
2018-05-16T04:46:15.846Z,5356.00
2018-05-16T04:47:15.828Z,5500.00
2018-05-16T04:48:15.849Z,5668.00
2018-05-16T04:49:15.879Z,5636.00
2018-05-16T04:50:15.890Z,5516.00
2018-05-16T04:51:15.900Z,5508.00
2018-05-16T04:52:15.925Z,5584.00
2018-05-16T04:53:15.945Z,5772.00
2018-05-16T04:54:15.966Z,6216.00
2018-05-16T04:55:15.979Z,6840.00
2018-05-16T04:56:16.011Z,7468.00
2018-05-16T04:57:16.017Z,8108.00
2018-05-16T04:58:16.042Z,9312.00
2018-05-16T04:59:16.068Z,9928.00
2018-05-16T05:00:16.080Z,10400.00
2018-05-16T05:01:16.096Z,11556.00
2018-05-16T05:02:16.131Z,11660.00
2018-05-16T05:03:16.146Z,11660.00
2018-05-16T05:04:16.158Z,12132.00
2018-05-16T05:05:16.184Z,10344.00
2018-05-16T05:06:16.195Z,9824.00
2018-05-16T05:07:16.207Z,10196.00
2018-05-16T05:08:16.251Z,11304.00
2018-05-16T05:09:16.265Z,18624.00
2018-05-16T05:10:16.273Z,32640.00
2018-05-16T05:11:16.300Z,28800.00
2018-05-16T05:12:16.314Z,28800.00
2018-05-16T05:13:16.335Z,40352.00
2018-05-16T05:14:16.361Z,45216.00
2018-05-16T05:15:16.381Z,44416.00
2018-05-16T05:16:16.404Z,44192.00
2018-05-16T05:17:16.411Z,46016.00
2018-05-16T05:18:16.471Z,39040.00
2018-05-16T05:19:16.451Z,35968.00
2018-05-16T05:20:16.479Z,42368.00
2018-05-16T05:21:16.501Z,41792.00
2018-05-16T05:22:16.530Z,42912.00
2018-05-16T05:23:16.566Z,44096.00
2018-05-16T05:24:16.596Z,43424.00
2018-05-16T05:25:16.592Z,41920.00
2018-05-16T05:26:16.622Z,40928.00
2018-05-16T05:27:16.679Z,37824.00
2018-05-16T05:28:16.672Z,33344.00
2018-05-16T05:29:16.691Z,34336.00
2018-05-16T05:30:16.750Z,34656.00
2018-05-16T05:31:16.741Z,38112.00
2018-05-16T05:32:16.756Z,37888.00
2018-05-16T05:33:16.783Z,34048.00
2018-05-16T05:34:16.840Z,39328.00
2018-05-16T05:35:16.838Z,40384.00
2018-05-16T05:36:16.870Z,39968.00
2018-05-16T05:37:16.891Z,43680.00
2018-05-16T05:38:16.910Z,41152.00
2018-05-16T05:39:16.933Z,33728.00
2018-05-16T05:40:16.971Z,39584.00
2018-05-16T05:41:17.005Z,42144.00
2018-05-16T05:42:17.016Z,44032.00
2018-05-16T05:43:17.050Z,43744.00
2018-05-16T05:44:17.056Z,43392.00
2018-05-16T05:45:17.088Z,40448.00
2018-05-16T05:46:17.117Z,39200.00
2018-05-16T05:47:17.149Z,36192.00
2018-05-16T05:48:17.176Z,38432.00
2018-05-16T05:49:17.281Z,38784.00
2018-05-16T05:50:17.212Z,39648.00
2018-05-16T05:51:17.248Z,28768.00
2018-05-16T05:52:17.264Z,32960.00
2018-05-16T05:53:17.303Z,37216.00
2018-05-16T05:54:17.317Z,37984.00
2018-05-16T05:55:17.338Z,37696.00
2018-05-16T05:56:17.365Z,36672.00
2018-05-16T05:57:17.401Z,35040.00
2018-05-16T05:58:17.427Z,35424.00
2018-05-16T05:59:17.473Z,34048.00
2018-05-16T06:00:17.474Z,30720.00
2018-05-16T06:01:17.502Z,28736.00
2018-05-16T06:02:17.537Z,26784.00
2018-05-16T06:03:17.571Z,27264.00
2018-05-16T06:04:17.578Z,25312.00
2018-05-16T06:05:17.624Z,38528.00
2018-05-16T06:06:17.672Z,39168.00
2018-05-16T06:07:17.681Z,29216.00
2018-05-16T06:08:17.693Z,19648.00
2018-05-16T06:09:17.759Z,48128.00
2018-05-16T06:10:17.749Z,27584.00
2018-05-16T06:11:17.771Z,21312.00
2018-05-16T06:12:17.826Z,22528.00
2018-05-16T06:13:17.840Z,26624.00
2018-05-16T06:14:17.850Z,37440.00
2018-05-16T06:15:17.878Z,28576.00
2018-05-16T06:16:17.895Z,22624.00
2018-05-16T06:17:17.965Z,22048.00
2018-05-16T06:18:17.952Z,20992.00
2018-05-16T06:19:17.972Z,20928.00
2018-05-16T06:20:18.008Z,21856.00
2018-05-16T06:21:18.040Z,25312.00
2018-05-16T06:22:18.042Z,43424.00
2018-05-16T06:23:18.091Z,59200.00
2018-05-16T06:24:18.093Z,59456.00
2018-05-16T06:25:18.152Z,54592.00
2018-05-16T06:26:18.147Z,63840.00
2018-05-16T06:27:18.253Z,61600.00
2018-05-16T06:28:18.190Z,60128.00
2018-05-16T06:29:18.245Z,59392.00
2018-05-16T06:30:18.247Z,58528.00
2018-05-16T06:31:18.292Z,64512.00
2018-05-16T06:32:18.306Z,69312.00
2018-05-16T06:33:18.323Z,73088.00
2018-05-16T06:34:18.357Z,76512.00
2018-05-16T06:35:18.390Z,67168.00
2018-05-16T06:36:18.419Z,58944.00
2018-05-16T06:37:18.453Z,59456.00
2018-05-16T06:38:18.455Z,58208.00
2018-05-16T06:39:18.483Z,66816.00
2018-05-16T06:40:18.497Z,61888.00
2018-05-16T06:41:18.542Z,56512.00
2018-05-16T06:42:18.552Z,38816.00
2018-05-16T06:43:18.588Z,29376.00
2018-05-16T06:44:18.608Z,30784.00
2018-05-16T06:45:18.621Z,26368.00
2018-05-16T06:46:18.655Z,32736.00
2018-05-16T06:47:18.687Z,34048.00
2018-05-16T06:48:18.733Z,36992.00
2018-05-16T06:49:18.759Z,36896.00
2018-05-16T06:50:18.759Z,47584.00
2018-05-16T06:51:18.791Z,44608.00
2018-05-16T06:52:18.799Z,49952.00
2018-05-16T06:53:18.910Z,51808.00
2018-05-16T06:54:18.867Z,49824.00
2018-05-16T06:55:18.883Z,29408.00
2018-05-16T06:56:18.949Z,22848.00
2018-05-16T06:57:18.930Z,20672.00
2018-05-16T06:58:18.971Z,21344.00
2018-05-16T06:59:18.984Z,28448.00
2018-05-16T07:00:19.010Z,30816.00
2018-05-16T07:01:19.032Z,32416.00
2018-05-16T07:02:19.051Z,36768.00
2018-05-16T07:03:19.079Z,47520.00
2018-05-16T07:04:19.105Z,23328.00
2018-05-16T07:05:19.134Z,17248.00
2018-05-16T07:06:19.160Z,14584.00
2018-05-16T07:07:19.172Z,12572.00
2018-05-16T07:08:19.204Z,11036.00
2018-05-16T07:09:19.233Z,9988.00
2018-05-16T07:10:19.254Z,9472.00
2018-05-16T07:11:19.272Z,9300.00
2018-05-16T07:12:19.303Z,9352.00
2018-05-16T07:13:19.341Z,9728.00
2018-05-16T07:14:19.351Z,10320.00
2018-05-16T07:15:19.468Z,11028.00
2018-05-16T07:16:19.402Z,11732.00
2018-05-16T07:17:19.414Z,12044.00
2018-05-16T07:18:19.444Z,12868.00
2018-05-16T07:19:19.488Z,14420.00
2018-05-16T07:20:19.500Z,15852.00
2018-05-16T07:21:19.532Z,17856.00
2018-05-16T07:22:19.534Z,16672.00
2018-05-16T07:23:19.568Z,19200.00
2018-05-16T07:24:19.603Z,24384.00
2018-05-16T07:25:19.618Z,33216.00
2018-05-16T07:26:19.621Z,29344.00
2018-05-16T07:27:19.654Z,31392.00
2018-05-16T07:28:19.692Z,29856.00
2018-05-16T07:29:19.693Z,31328.00
2018-05-16T07:30:19.714Z,28288.00
2018-05-16T07:31:19.769Z,29184.00
2018-05-16T07:32:19.806Z,19424.00
2018-05-16T07:33:19.788Z,19712.00
2018-05-16T07:34:19.805Z,19808.00
2018-05-16T07:35:19.832Z,16104.00
2018-05-16T07:36:19.857Z,13196.00
2018-05-16T07:37:19.890Z,12984.00
2018-05-16T07:38:19.899Z,14656.00
2018-05-16T07:39:19.929Z,18560.00
2018-05-16T07:40:19.952Z,19264.00
2018-05-16T07:41:19.977Z,14592.00
2018-05-16T07:42:20.017Z,16704.00
2018-05-16T07:43:20.019Z,12748.00
2018-05-16T07:44:20.045Z,11768.00
2018-05-16T07:45:20.077Z,11632.00
2018-05-16T07:46:20.103Z,11864.00
2018-05-16T07:47:20.127Z,12056.00
2018-05-16T07:48:20.149Z,12268.00
2018-05-16T07:49:20.161Z,12532.00
2018-05-16T07:50:20.200Z,12740.00
2018-05-16T07:51:20.345Z,12620.00
2018-05-16T07:52:20.239Z,13044.00
2018-05-16T07:53:20.261Z,13464.00
2018-05-16T07:54:20.275Z,14660.00
2018-05-16T07:55:20.323Z,16364.00
2018-05-16T07:56:20.338Z,19104.00
2018-05-16T07:57:20.343Z,30656.00
2018-05-16T07:58:20.365Z,24736.00
2018-05-16T07:59:20.402Z,18624.00
2018-05-16T08:00:20.416Z,22560.00
2018-05-16T08:01:20.454Z,17856.00
2018-05-16T08:02:20.466Z,15644.00
2018-05-16T08:03:20.595Z,15976.00
2018-05-16T08:04:20.505Z,19520.00
2018-05-16T08:05:20.548Z,15588.00
2018-05-16T08:06:20.636Z,14192.00
2018-05-16T08:07:20.574Z,15320.00
2018-05-16T08:08:20.622Z,17216.00
2018-05-16T08:09:20.622Z,18528.00
2018-05-16T08:10:20.647Z,20064.00
2018-05-16T08:11:20.663Z,21760.00
2018-05-16T08:12:20.690Z,24256.00
2018-05-16T08:13:20.723Z,31328.00
2018-05-16T08:14:20.736Z,33248.00
2018-05-16T08:15:20.758Z,41312.00
2018-05-16T08:16:20.778Z,31968.00
2018-05-16T08:17:20.804Z,40064.00
2018-05-16T08:18:20.838Z,40288.00
2018-05-16T08:19:20.857Z,39520.00
2018-05-16T08:20:20.878Z,39200.00
2018-05-16T08:21:20.894Z,32064.00
2018-05-16T08:22:20.931Z,36448.00
2018-05-16T08:23:20.946Z,33184.00
2018-05-16T08:24:20.964Z,20448.00
2018-05-16T08:25:21.029Z,18176.00
2018-05-16T08:26:21.009Z,18304.00
2018-05-16T08:27:21.050Z,18752.00
2018-05-16T08:28:21.075Z,19136.00
2018-05-16T08:29:21.083Z,20064.00
2018-05-16T08:30:21.115Z,20928.00
2018-05-16T08:31:21.144Z,21056.00
2018-05-16T08:32:21.157Z,20896.00
2018-05-16T08:33:21.187Z,20000.00
2018-05-16T08:34:21.219Z,19488.00
2018-05-16T08:35:21.228Z,18432.00
2018-05-16T08:36:21.254Z,17664.00
2018-05-16T08:37:21.276Z,17632.00
2018-05-16T08:38:21.293Z,17856.00
2018-05-16T08:39:21.338Z,18368.00
2018-05-16T08:40:21.370Z,18880.00
2018-05-16T08:41:21.383Z,19264.00
2018-05-16T08:42:21.388Z,19584.00
2018-05-16T08:43:21.431Z,19936.00
2018-05-16T08:44:21.436Z,20320.00
2018-05-16T08:45:21.460Z,20448.00
2018-05-16T08:46:21.485Z,20224.00
2018-05-16T08:47:21.508Z,19968.00
2018-05-16T08:48:21.557Z,19712.00
2018-05-16T08:49:21.555Z,19168.00
2018-05-16T08:50:21.573Z,18496.00
2018-05-16T08:51:21.607Z,17856.00
2018-05-16T08:52:21.624Z,17216.00
2018-05-16T08:53:21.646Z,16112.00
2018-05-16T08:54:21.669Z,14888.00
2018-05-16T08:55:21.718Z,13812.00
2018-05-16T08:56:21.715Z,13160.00
2018-05-16T08:57:21.737Z,12612.00
2018-05-16T08:58:21.775Z,12208.00
2018-05-16T08:59:21.805Z,11992.00
2018-05-16T09:00:21.814Z,11784.00
2018-05-16T09:01:21.836Z,11396.00
2018-05-16T09:02:21.867Z,11184.00
2018-05-16T09:03:21.888Z,11080.00
2018-05-16T09:04:21.906Z,11020.00
2018-05-16T09:05:21.930Z,10680.00
2018-05-16T09:06:21.951Z,10576.00
2018-05-16T09:07:21.978Z,10816.00
2018-05-16T09:08:22.025Z,11088.00
2018-05-16T09:09:22.021Z,11148.00
2018-05-16T09:10:22.043Z,11560.00
2018-05-16T09:11:22.070Z,11604.00
2018-05-16T09:12:22.119Z,11224.00
2018-05-16T09:13:22.143Z,10196.00
2018-05-16T09:14:22.135Z,9032.00
2018-05-16T09:15:22.180Z,8072.00
2018-05-16T09:16:22.176Z,7468.00
2018-05-16T09:17:22.260Z,7108.00
2018-05-16T09:18:22.230Z,7084.00
2018-05-16T09:19:22.266Z,7144.00
2018-05-16T09:20:22.273Z,7176.00
2018-05-16T09:21:22.296Z,7188.00
2018-05-16T09:22:22.324Z,7156.00
2018-05-16T09:23:22.340Z,6972.00
2018-05-16T09:24:22.361Z,6700.00
2018-05-16T09:25:22.383Z,6272.00
2018-05-16T09:26:22.404Z,5812.00
2018-05-16T09:27:22.426Z,5288.00
2018-05-16T09:28:22.461Z,4800.00
2018-05-16T09:29:22.560Z,4452.00
2018-05-16T09:30:22.494Z,4248.00
2018-05-16T09:31:22.514Z,4072.00
2018-05-16T09:32:22.536Z,3892.00
2018-05-16T09:33:22.560Z,3724.00
2018-05-16T09:34:22.577Z,3656.00
2018-05-16T09:35:22.617Z,3684.00
2018-05-16T09:36:22.632Z,3808.00
2018-05-16T09:37:22.690Z,3924.00
2018-05-16T09:38:22.661Z,3996.00
2018-05-16T09:39:22.686Z,4064.00
2018-05-16T09:40:22.793Z,4184.00
2018-05-16T09:41:22.746Z,4348.00
2018-05-16T09:42:22.758Z,4540.00
2018-05-16T09:43:22.775Z,4708.00
2018-05-16T09:44:22.798Z,4740.00
2018-05-16T09:45:22.816Z,4760.00
2018-05-16T09:46:22.847Z,4672.00
2018-05-16T09:47:22.873Z,4580.00
2018-05-16T09:48:22.886Z,4508.00
2018-05-16T09:49:22.899Z,4420.00
2018-05-16T09:50:22.942Z,4312.00
2018-05-16T09:51:22.993Z,4024.00
2018-05-16T09:52:22.972Z,3660.00
2018-05-16T09:53:22.998Z,3344.00
2018-05-16T09:54:23.026Z,3308.00
2018-05-16T09:55:23.034Z,3552.00
2018-05-16T09:56:23.061Z,3688.00
2018-05-16T09:57:23.074Z,4092.00
2018-05-16T09:58:23.097Z,4380.00
2018-05-16T09:59:23.119Z,4316.00
2018-05-16T10:00:23.141Z,4120.00
2018-05-16T10:01:23.224Z,4084.00
2018-05-16T10:02:23.185Z,4172.00
2018-05-16T10:03:23.209Z,4368.00
2018-05-16T10:04:23.226Z,4660.00
2018-05-16T10:05:23.270Z,5112.00
2018-05-16T10:06:23.278Z,5256.00
2018-05-16T10:07:23.299Z,5860.00
2018-05-16T10:08:23.325Z,6324.00
2018-05-16T10:09:23.344Z,6928.00
2018-05-16T10:10:23.358Z,7372.00
2018-05-16T10:11:23.379Z,7180.00
2018-05-16T10:12:23.396Z,6824.00
2018-05-16T10:13:23.421Z,6784.00
2018-05-16T10:14:23.439Z,6812.00
2018-05-16T10:15:23.462Z,6936.00
2018-05-16T10:16:23.487Z,7080.00
2018-05-16T10:17:23.519Z,7088.00
2018-05-16T10:18:23.530Z,7124.00
2018-05-16T10:19:23.575Z,7200.00
2018-05-16T10:20:23.574Z,7140.00
2018-05-16T10:21:23.591Z,7168.00
2018-05-16T10:22:23.628Z,7308.00
2018-05-16T10:23:23.636Z,7376.00
2018-05-16T10:24:23.687Z,7504.00
2018-05-16T10:25:23.691Z,7816.00
2018-05-16T10:26:23.701Z,8288.00
2018-05-16T10:27:23.793Z,9376.00
2018-05-16T10:28:23.739Z,11088.00
2018-05-16T10:29:23.789Z,12436.00
2018-05-16T10:30:23.793Z,12772.00
2018-05-16T10:31:23.841Z,13328.00
2018-05-16T10:32:23.836Z,14232.00
2018-05-16T10:33:23.861Z,14212.00
2018-05-16T10:34:23.899Z,13672.00
2018-05-16T10:35:23.901Z,12276.00
2018-05-16T10:36:23.931Z,10452.00
2018-05-16T10:37:23.933Z,9212.00
2018-05-16T10:38:23.957Z,8232.00
2018-05-16T10:39:23.984Z,7648.00
2018-05-16T10:40:24.018Z,7280.00
2018-05-16T10:41:24.075Z,7216.00
2018-05-16T10:42:24.050Z,7108.00
2018-05-16T10:43:24.069Z,6936.00
2018-05-16T10:44:24.115Z,6784.00
2018-05-16T10:45:24.109Z,6792.00
2018-05-16T10:46:24.148Z,6864.00
2018-05-16T10:47:24.160Z,7128.00
2018-05-16T10:48:24.396Z,7748.00
2018-05-16T10:49:24.195Z,8636.00
2018-05-16T10:50:24.224Z,9016.00
2018-05-16T10:51:24.251Z,8432.00
2018-05-16T10:52:24.272Z,7532.00
2018-05-16T10:53:24.284Z,7352.00
2018-05-16T10:54:24.310Z,7536.00
2018-05-16T10:55:24.339Z,7760.00
2018-05-16T10:56:24.358Z,8468.00
2018-05-16T10:57:24.423Z,9004.00
2018-05-16T10:58:24.404Z,9508.00
2018-05-16T10:59:24.411Z,9052.00
2018-05-16T11:00:24.450Z,8360.00
2018-05-16T11:01:24.466Z,7676.00
2018-05-16T11:02:24.492Z,6984.00
2018-05-16T11:03:24.573Z,6508.00
2018-05-16T11:04:24.537Z,6380.00
2018-05-16T11:05:24.552Z,6108.00
2018-05-16T11:06:24.571Z,6132.00
2018-05-16T11:07:24.632Z,6376.00
2018-05-16T11:08:24.629Z,6588.00
2018-05-16T11:09:24.633Z,6596.00
2018-05-16T11:10:24.697Z,6764.00
2018-05-16T11:11:24.676Z,6800.00
2018-05-16T11:12:24.701Z,6548.00
2018-05-16T11:13:24.733Z,6676.00
2018-05-16T11:14:24.748Z,6824.00
2018-05-16T11:15:24.775Z,6820.00
2018-05-16T11:16:24.786Z,6676.00
2018-05-16T11:17:24.822Z,6952.00
2018-05-16T11:18:24.832Z,7260.00
2018-05-16T11:19:24.852Z,7180.00
2018-05-16T11:20:24.878Z,7240.00
2018-05-16T11:21:24.911Z,7388.00
2018-05-16T11:22:24.941Z,7560.00
2018-05-16T11:23:24.963Z,7892.00
2018-05-16T11:24:24.974Z,8304.00
2018-05-16T11:25:24.989Z,8772.00
2018-05-16T11:26:25.041Z,9260.00
2018-05-16T11:27:25.068Z,9852.00
2018-05-16T11:28:25.055Z,10576.00
2018-05-16T11:29:25.078Z,11672.00
2018-05-16T11:30:25.093Z,12576.00
2018-05-16T11:31:25.110Z,13316.00
2018-05-16T11:32:25.133Z,12852.00
2018-05-16T11:33:25.159Z,11988.00
2018-05-16T11:34:25.179Z,11212.00
2018-05-16T11:35:25.193Z,10504.00
2018-05-16T11:36:25.229Z,9296.00
2018-05-16T11:37:25.241Z,8288.00
2018-05-16T11:38:25.261Z,8036.00
2018-05-16T11:39:25.307Z,8124.00
2018-05-16T11:40:25.307Z,8600.00
2018-05-16T11:41:25.334Z,9124.00
2018-05-16T11:42:25.441Z,8972.00
2018-05-16T11:43:25.386Z,8900.00
2018-05-16T11:44:25.406Z,8856.00
2018-05-16T11:45:25.431Z,8844.00
2018-05-16T11:46:25.438Z,9076.00
2018-05-16T11:47:25.457Z,8796.00
2018-05-16T11:48:25.479Z,8312.00
2018-05-16T11:49:25.500Z,7496.00
2018-05-16T11:50:25.540Z,7480.00
2018-05-16T11:51:25.547Z,7692.00
2018-05-16T11:52:25.568Z,7956.00
2018-05-16T11:53:25.611Z,8036.00
2018-05-16T11:54:25.636Z,8072.00
2018-05-16T11:55:25.637Z,7612.00
2018-05-16T11:56:25.650Z,7224.00
2018-05-16T11:57:25.677Z,7072.00
2018-05-16T11:58:25.709Z,7056.00
2018-05-16T11:59:25.762Z,7028.00
2018-05-16T12:00:25.742Z,7100.00
2018-05-16T12:01:25.773Z,7400.00
2018-05-16T12:02:25.782Z,7984.00
2018-05-16T12:03:25.809Z,8948.00
2018-05-16T12:04:25.836Z,10040.00
2018-05-16T12:05:25.871Z,10944.00
2018-05-16T12:06:25.885Z,11072.00
2018-05-16T12:07:25.902Z,11300.00
2018-05-16T12:08:25.915Z,11320.00
2018-05-16T12:09:25.956Z,11440.00
2018-05-16T12:10:25.971Z,11616.00
2018-05-16T12:11:25.998Z,11736.00
2018-05-16T12:12:26.011Z,11824.00
2018-05-16T12:13:26.032Z,11672.00
2018-05-16T12:14:26.049Z,11520.00
2018-05-16T12:15:26.071Z,11372.00